Time;durP1;ratioP1;P1;durP2;ratioP2;P2;SDS_P1;SDS_P2;PMS_P1;PMS_P2;Temp;Humidity;BMP_temperature;BMP_pressure;BME280_temperature;BME280_humidity;BME280_pressure;Samples;Min_cycle;Max_cycle;Signal;HPM_P1;HPM_P2
2021/06/28 07:54:39;;;;;;;6.45;1.50;;;21.40;99.90;;;;;;12111214;27;20125;-55
2021/06/28 08:00:26;;;;;;;5.75;1.30;;;21.80;99.90;;;;;;12110709;28;20052;-53
2021/06/28 08:06:14;;;;;;;11.65;2.10;;;22.70;99.90;;;;;;12103959;28;20472;-54
2021/06/28 08:12:02;;;;;;;10.05;1.73;;;23.00;99.90;;;;;;12108163;27;20056;-56
2021/06/28 08:17:50;;;;;;;10.15;1.90;;;23.20;99.90;;;;;;12111036;27;20519;-55
2021/06/28 08:23:36;;;;;;;7.72;1.60;;;23.40;99.90;;;;;;12112503;27;20058;-55
2021/06/28 08:29:25;;;;;;;5.55;1.58;;;23.80;99.90;;;;;;12107220;27;20412;-54
2021/06/28 08:35:12;;;;;;;8.93;1.45;;;24.00;99.90;;;;;;12103893;27;20044;-52
2021/06/28 08:40:59;;;;;;;9.57;1.92;;;23.80;99.90;;;;;;12096980;27;20048;-56
2021/06/28 08:46:47;;;;;;;8.73;1.52;;;23.70;99.90;;;;;;12095354;27;20149;-55
2021/06/28 08:52:38;;;;;;;10.73;1.42;;;23.50;99.90;;;;;;12111590;27;20518;-56
2021/06/28 08:58:26;;;;;;;4.65;1.10;;;23.60;99.90;;;;;;12106450;27;20518;-55
2021/06/28 09:04:14;;;;;;;3.70;1.40;;;23.80;99.90;;;;;;12084809;28;20048;-56
2021/06/28 09:10:01;;;;;;;9.95;1.20;;;24.00;99.90;;;;;;12074600;28;20520;-56
2021/06/28 09:15:49;;;;;;;8.93;1.60;;;23.90;99.90;;;;;;12077454;27;20120;-55
2021/06/28 09:21:40;;;;;;;5.78;1.20;;;23.90;99.90;;;;;;12075906;28;20059;-55
2021/06/28 09:27:30;;;;;;;6.00;1.40;;;24.20;99.90;;;;;;12074634;28;20579;-52
2021/06/28 09:33:21;;;;;;;4.30;1.17;;;24.50;99.90;;;;;;12077727;27;20048;-54
2021/06/28 09:39:26;;;;;;;4.72;1.15;;;24.50;99.90;;;;;;12076881;27;20051;-55
2021/06/28 09:45:17;;;;;;;4.03;1.10;;;24.50;99.90;;;;;;12076592;27;20435;-54
2021/06/28 09:51:25;;;;;;;2.25;1.08;;;24.50;99.90;;;;;;12066821;28;20056;-53
2021/06/28 09:57:13;;;;;;;6.93;1.40;;;24.90;99.90;;;;;;12064489;27;20515;-54
2021/06/28 10:03:00;;;;;;;5.15;1.20;;;25.00;99.90;;;;;;12067129;28;20075;-56
2021/06/28 10:08:51;;;;;;;3.05;0.90;;;24.90;99.80;;;;;;12063016;27;20037;-57
2021/06/28 10:14:39;;;;;;;3.20;1.00;;;25.10;99.90;;;;;;12069633;27;20309;-54
2021/06/28 10:20:28;;;;;;;4.80;1.20;;;25.00;99.90;;;;;;12075373;28;20109;-53
2021/06/28 10:26:16;;;;;;;6.97;1.17;;;24.90;99.90;;;;;;12072356;28;20055;-52
2021/06/28 10:32:08;;;;;;;1.55;1.20;;;24.60;99.90;;;;;;12063056;27;20136;-54
2021/06/28 10:37:59;;;;;;;3.33;1.23;;;24.50;99.70;;;;;;12054182;28;20117;-54
2021/06/28 10:57:11;;;;;;;8.40;1.38;;;25.40;99.80;;;;;;12111731;28;20028;-52
2021/06/28 11:02:58;;;;;;;5.50;1.00;;;25.90;99.10;;;;;;12109349;28;20127;-56
2021/06/28 11:09:05;;;;;;;5.63;1.40;;;26.20;97.70;;;;;;12109553;28;20044;-54
2021/06/28 11:14:55;;;;;;;1.65;1.30;;;26.40;97.80;;;;;;12104065;27;20047;-55
2021/06/28 11:20:52;;;;;;;5.28;1.20;;;26.20;95.70;;;;;;12109974;28;20048;-53
2021/06/28 11:26:40;;;;;;;2.92;1.17;;;26.00;96.40;;;;;;12092288;27;20068;-54
2021/06/28 11:32:30;;;;;;;4.43;1.08;;;26.00;97.10;;;;;;12066414;27;20047;-52
2021/06/28 11:38:24;;;;;;;4.07;1.05;;;26.10;97.70;;;;;;12066565;27;20060;-52
2021/06/28 11:44:25;;;;;;;3.03;1.15;;;26.30;97.30;;;;;;12068228;27;20052;-52
2021/06/28 11:50:35;;;;;;;3.65;1.33;;;26.50;96.30;;;;;;12025301;28;20064;-55
2021/06/28 11:56:27;;;;;;;2.30;1.13;;;26.30;94.50;;;;;;12053594;28;20066;-53
2021/06/28 12:02:17;;;;;;;3.87;0.97;;;26.10;95.50;;;;;;12108629;28;20036;-56
2021/06/28 12:08:06;;;;;;;3.50;1.00;;;26.10;95.80;;;;;;12108341;28;20039;-53
2021/06/28 12:13:56;;;;;;;10.35;1.20;;;26.40;95.90;;;;;;12108709;28;20040;-55
2021/06/28 12:19:46;;;;;;;2.95;1.00;;;26.70;94.30;;;;;;12083002;27;20044;-56
2021/06/28 12:25:34;;;;;;;2.35;0.68;;;26.70;94.50;;;;;;12098175;28;20523;-56
2021/06/28 12:31:21;;;;;;;0.85;0.80;;;27.00;94.20;;;;;;12065274;27;20045;-55
2021/06/28 12:37:09;;;;;;;3.90;1.10;;;27.00;93.50;;;;;;12045744;28;20059;-54
2021/06/28 12:43:01;;;;;;;3.72;1.00;;;27.10;93.60;;;;;;12085645;27;20071;-55
2021/06/28 13:02:04;;;;;;;0.85;0.77;;;27.00;92.80;;;;;;12033754;28;20040;-69
2021/06/28 13:08:07;;;;;;;0.90;0.80;;;27.50;92.30;;;;;;12116114;28;20058;-54
2021/06/28 13:14:05;;;;;;;1.08;0.85;;;27.60;91.00;;;;;;12114398;27;20293;-56
2021/06/28 13:19:54;;;;;;;1.95;1.00;;;27.80;90.70;;;;;;12114218;28;20071;-56
2021/06/28 13:25:41;;;;;;;2.20;0.93;;;27.80;88.80;;;;;;12105835;27;20063;-59
2021/06/28 13:31:47;;;;;;;2.40;0.80;;;27.70;90.60;;;;;;12071854;28;20052;-57
2021/06/28 13:44:17;;;;;;;1.55;1.05;;;27.70;89.90;;;;;;12113911;28;20048;-57
2021/06/28 13:50:15;;;;;;;1.75;1.05;;;27.50;90.20;;;;;;12112833;28;20111;-57
2021/06/28 13:56:07;;;;;;;2.20;1.10;;;27.20;90.60;;;;;;12112657;27;20044;-57
2021/06/28 14:01:56;;;;;;;4.53;1.48;;;27.20;91.20;;;;;;12076469;27;20040;-54
2021/06/28 14:07:43;;;;;;;1.65;0.93;;;27.20;91.40;;;;;;12112798;27;20427;-55
2021/06/28 14:13:30;;;;;;;10.23;1.20;;;27.10;90.90;;;;;;12112741;28;20048;-55
2021/06/28 14:19:18;;;;;;;2.33;1.10;;;27.40;88.90;;;;;;12112788;27;20047;-55
2021/06/28 14:25:07;;;;;;;2.13;0.93;;;27.70;90.80;;;;;;12107204;27;20072;-54
2021/06/28 14:37:37;;;;;;;1.73;1.05;;;28.40;85.00;;;;;;12111399;27;20581;-54
2021/06/28 14:43:24;;;;;;;1.52;0.90;;;28.60;83.90;;;;;;12111123;27;20036;-58
2021/06/28 14:49:11;;;;;;;1.40;0.93;;;28.60;83.90;;;;;;12110897;28;20057;-56
2021/06/28 14:55:00;;;;;;;2.50;1.30;;;28.60;85.40;;;;;;12110908;28;20044;-54
2021/06/28 15:00:47;;;;;;;1.65;1.10;;;28.70;84.30;;;;;;12108853;27;20040;-55
2021/06/28 15:06:34;;;;;;;1.70;1.25;;;28.40;82.80;;;;;;12128029;28;20040;-54
2021/06/28 15:12:31;;;;;;;1.13;0.80;;;28.50;84.40;;;;;;12110409;28;20102;-56
2021/06/28 15:18:18;;;;;;;2.35;0.95;;;29.10;83.80;;;;;;12110529;28;20504;-55
2021/06/28 15:24:06;;;;;;;0.85;0.80;;;29.40;76.70;;;;;;12108992;27;20047;-53
2021/06/28 15:29:54;;;;;;;2.17;0.85;;;28.90;78.10;;;;;;12071728;27;20059;-56
2021/06/28 15:35:41;;;;;;;3.65;1.27;;;28.90;77.50;;;;;;12067897;28;20048;-56
2021/06/28 15:41:33;;;;;;;1.70;0.80;;;29.10;77.70;;;;;;12091453;27;20081;-55
2021/06/28 15:54:02;;;;;;;4.40;1.00;;;29.30;76.90;;;;;;12108517;27;20048;-59
2021/06/28 15:59:49;;;;;;;1.42;0.90;;;28.80;77.10;;;;;;12106072;28;20421;-54
2021/06/28 16:05:37;;;;;;;0.80;0.80;;;28.30;77.60;;;;;;12108903;28;20040;-55
2021/06/28 16:11:25;;;;;;;0.80;0.80;;;28.20;77.60;;;;;;12109120;27;20423;-53
2021/06/28 16:17:12;;;;;;;1.63;0.73;;;28.80;75.60;;;;;;12117787;28;20048;-55
2021/06/28 16:22:59;;;;;;;1.10;0.70;;;30.90;72.50;;;;;;12118083;28;20058;-59
2021/06/28 16:29:06;;;;;;;1.48;0.60;;;33.90;62.40;;;;;;12115452;28;20040;-58
2021/06/28 16:34:53;;;;;;;0.73;0.60;;;35.60;54.50;;;;;;12116008;27;20036;-60
2021/06/28 16:40:40;;;;;;;1.45;0.70;;;37.00;50.60;;;;;;12117532;28;20046;-60
2021/06/28 16:46:28;;;;;;;1.00;0.73;;;37.70;50.20;;;;;;12117299;28;20062;-59
2021/06/28 16:52:15;;;;;;;2.53;0.80;;;38.70;48.10;;;;;;12116670;27;20059;-59
2021/06/28 16:58:01;;;;;;;1.95;0.70;;;39.60;45.90;;;;;;12116528;27;20499;-58
2021/06/28 17:03:50;;;;;;;2.78;0.70;;;40.00;43.90;;;;;;12115706;28;20033;-58
2021/06/28 17:09:37;;;;;;;1.95;0.65;;;40.60;42.80;;;;;;12044078;27;20054;-59
2021/06/28 17:15:24;;;;;;;1.50;0.60;;;41.20;42.20;;;;;;12115889;27;20044;-61
2021/06/28 17:21:13;;;;;;;0.95;0.75;;;41.40;40.90;;;;;;12116160;27;20044;-58
2021/06/28 17:27:00;;;;;;;0.60;0.50;;;42.30;38.40;;;;;;12098558;28;20056;-57
2021/06/28 17:39:12;;;;;;;1.48;0.90;;;35.80;44.70;;;;;;12093961;28;20048;-59
2021/06/28 17:44:59;;;;;;;1.63;0.90;;;32.60;50.50;;;;;;12109452;27;20052;-55
2021/06/28 17:50:46;;;;;;;2.15;1.35;;;30.90;53.10;;;;;;12111769;28;20040;-57
2021/06/28 17:56:34;;;;;;;3.20;1.40;;;29.40;57.40;;;;;;12112641;28;20047;-57
2021/06/28 18:02:21;;;;;;;3.05;1.58;;;27.70;64.20;;;;;;12110918;28;20059;-59
2021/06/28 18:08:08;;;;;;;3.08;1.13;;;26.70;68.20;;;;;;12111440;27;20040;-59
2021/06/28 18:13:56;;;;;;;2.70;1.42;;;26.00;73.10;;;;;;12111840;28;20157;-59
2021/06/28 18:19:43;;;;;;;5.18;1.42;;;25.60;74.20;;;;;;12109628;27;20040;-59
2021/06/28 18:25:30;;;;;;;2.42;1.65;;;25.30;77.50;;;;;;12093110;28;20378;-58
2021/06/28 18:31:20;;;;;;;2.55;1.83;;;24.90;79.60;;;;;;12074338;27;20071;-55
2021/06/28 18:37:07;;;;;;;3.47;1.58;;;24.30;84.30;;;;;;12111074;27;20055;-55
2021/06/28 18:42:55;;;;;;;4.97;2.05;;;24.10;82.70;;;;;;12109990;27;20116;-54
2021/06/28 18:48:43;;;;;;;5.07;1.80;;;24.10;87.90;;;;;;12112257;28;20097;-53
2021/06/28 18:54:30;;;;;;;2.13;1.40;;;24.30;85.70;;;;;;12111016;27;20292;-53
2021/06/28 19:06:20;;;;;;;4.55;1.63;;;25.80;80.80;;;;;;12111617;27;20070;-56
2021/06/28 19:12:07;;;;;;;2.97;1.60;;;26.50;76.50;;;;;;12110488;28;20051;-54
2021/06/28 19:17:55;;;;;;;5.97;1.67;;;26.20;76.40;;;;;;12110080;28;20048;-51
2021/06/28 19:23:43;;;;;;;4.22;1.80;;;25.70;79.40;;;;;;12109820;27;20063;-55
2021/06/28 19:29:30;;;;;;;3.22;1.73;;;25.50;81.70;;;;;;12067940;28;20047;-55
2021/06/28 19:35:17;;;;;;;5.05;3.17;;;25.40;85.40;;;;;;12064305;28;20059;-54
2021/06/28 19:47:48;;;;;;;5.15;2.28;;;25.00;88.10;;;;;;12109120;28;20031;-53
2021/06/28 19:53:35;;;;;;;8.10;3.60;;;24.90;88.90;;;;;;12086515;28;20586;-52
2021/06/28 19:59:22;;;;;;;7.10;1.80;;;24.70;87.90;;;;;;12107060;27;20415;-56
2021/06/28 20:05:36;;;;;;;7.05;2.17;;;24.60;90.00;;;;;;12108682;28;20055;-57
2021/06/28 20:11:24;;;;;;;7.03;2.00;;;24.50;90.40;;;;;;12106587;27;20074;-57
2021/06/28 20:17:11;;;;;;;3.00;1.90;;;24.40;90.60;;;;;;12109610;28;20097;-58
2021/06/28 20:22:59;;;;;;;5.10;1.90;;;24.30;89.20;;;;;;12109085;28;20044;-57
2021/06/28 20:28:46;;;;;;;4.35;1.63;;;24.20;90.40;;;;;;12080743;28;20045;-52
2021/06/28 20:34:34;;;;;;;3.38;1.52;;;24.10;89.80;;;;;;12067430;27;20049;-51
2021/06/28 20:40:22;;;;;;;3.08;1.67;;;23.80;87.70;;;;;;12066827;27;20087;-54
2021/06/28 20:46:09;;;;;;;7.28;1.20;;;23.60;85.30;;;;;;12069677;27;20393;-54
2021/06/28 20:51:56;;;;;;;3.10;1.20;;;23.60;82.70;;;;;;12056831;27;20431;-53
2021/06/28 20:57:44;;;;;;;2.78;0.90;;;23.40;83.60;;;;;;12070343;27;20052;-56
2021/06/28 21:03:31;;;;;;;3.28;1.00;;;23.30;82.80;;;;;;12074571;27;20062;-52
2021/06/28 21:09:18;;;;;;;6.88;1.30;;;23.40;84.60;;;;;;12077484;28;21368;-53
2021/06/28 21:15:10;;;;;;;10.43;1.10;;;23.40;85.70;;;;;;12075500;27;20062;-53
2021/06/28 21:20:57;;;;;;;4.38;1.10;;;23.40;86.50;;;;;;12075624;28;20055;-55
2021/06/28 21:26:44;;;;;;;3.17;1.50;;;23.40;87.00;;;;;;12070989;28;20071;-55
2021/06/28 21:32:33;;;;;;;4.80;1.20;;;23.30;89.20;;;;;;12073225;27;20067;-55
2021/06/28 21:38:20;;;;;;;6.18;1.10;;;23.40;89.10;;;;;;12073309;28;20075;-54
2021/06/28 21:44:08;;;;;;;4.32;1.02;;;23.30;88.90;;;;;;12076313;27;20070;-55
2021/06/28 21:49:56;;;;;;;5.07;1.25;;;23.10;89.40;;;;;;12076960;27;20491;-57
2021/06/28 21:55:43;;;;;;;5.82;0.80;;;23.10;89.90;;;;;;12074105;27;20052;-51
2021/06/28 22:01:33;;;;;;;3.55;0.70;;;23.10;90.20;;;;;;12068637;28;20528;-63
2021/06/28 22:07:21;;;;;;;7.15;1.60;;;23.10;90.20;;;;;;12069343;27;20497;-57
2021/06/28 22:13:12;;;;;;;4.53;1.10;;;23.20;90.70;;;;;;12070544;28;20047;-60
2021/06/28 22:18:59;;;;;;;6.03;1.05;;;23.30;90.00;;;;;;12067701;27;20829;-63
2021/06/28 22:24:47;;;;;;;5.07;1.30;;;23.20;89.80;;;;;;12077039;27;20040;-63
2021/06/28 22:30:34;;;;;;;5.32;1.65;;;22.90;90.50;;;;;;12072977;28;20048;-63
2021/06/28 22:36:21;;;;;;;3.10;1.38;;;22.70;90.70;;;;;;12074358;27;20601;-63
2021/06/28 22:42:10;;;;;;;3.10;1.15;;;22.60;91.00;;;;;;12076549;27;20040;-62
2021/06/28 22:47:57;;;;;;;4.35;1.20;;;22.50;91.20;;;;;;12075816;28;20075;-63
2021/06/28 22:53:44;;;;;;;5.38;1.60;;;22.60;91.80;;;;;;12071323;27;20044;-63
2021/06/28 22:59:32;;;;;;;2.67;1.00;;;22.50;91.30;;;;;;12074585;27;20077;-63
2021/06/28 23:05:19;;;;;;;10.23;1.55;;;22.20;92.00;;;;;;12072819;27;20534;-63
2021/06/28 23:11:06;;;;;;;2.85;1.27;;;22.10;92.20;;;;;;12072914;27;20044;-63
2021/06/28 23:16:55;;;;;;;3.70;1.10;;;22.00;92.20;;;;;;12071202;27;20048;-63
2021/06/28 23:22:41;;;;;;;6.85;1.63;;;22.00;92.50;;;;;;12074167;27;20036;-63
2021/06/28 23:28:28;;;;;;;8.18;1.50;;;22.00;92.20;;;;;;12073770;27;20048;-63
2021/06/28 23:34:17;;;;;;;3.30;1.35;;;22.00;91.70;;;;;;12075399;28;20788;-63
2021/06/28 23:40:04;;;;;;;3.00;1.10;;;21.90;91.50;;;;;;12073107;27;21438;-62
